Weather observations for the past three days for
Kearney, Kearney Municipal Airport
Metric (Imperial)
Date Time (cdt) Wind (kph) Vis. (km) Weather Sky Cond. Temperature (ºC) Relative Humidity Wind Chill (°C) Heat Index (°C) Pressure Precipitation (cm)
Air Dwpt 6 hour altimeter (cm) sea level (mb) 1 hr 3 hr 6 hr
Max. Min.
04 20:56 N 35 G 46 16.09 Fair and Breezy CLR 14.4 1.7 42% 75.62 1007.5
04 19:56 N 39 G 52 16.09 Fair and Breezy CLR 17.2 1.7 35% 75.49 1006.0
04 18:56 NE 41 16.09 Fair and Breezy CLR 19.4 2.2 27.2 19.4 32% 75.44 1005.2
04 17:56 N 35 16.09 Fair and Breezy CLR 21.7 2.2 28% 75.41 1004.8
04 16:56 N 35 16.09 Fair and Breezy CLR 21.7 1.7 27% 75.39 1004.2
04 15:56 N 35 G 48 16.09 Fair and Breezy CLR 23.9 3.9 27% 25 75.39 1003.8
04 14:56 N 31 G 43 16.09 Fair CLR 24.4 5.6 30% 25 75.36 1003.5
04 13:56 N 41 G 48 16.09 Fair and Breezy CLR 25.6 6.1 29% 26 75.34 1003.0
04 12:56 NW 20 G 39 16.09 Fair CLR 27.2 0.6 27.2 6.7 18% 26 75.31 1002.6
04 11:56 NW 19 16.09 Fair CLR 26.1 0 18% 25 75.34 1002.9
04 10:56 W 17 G 33 16.09 Fair CLR 24.4 2.8 25% 25 75.34 1003.1
04 09:56 W 17 16.09 Fair CLR 21.1 4.4 34% 75.39 1003.7
04 08:56 W 13 16.09 Fair CLR 15.6 3.9 46% 75.41 1004.3
04 07:56 NW 11 16.09 Fair CLR 10.6 2.8 59% 75.39 1004.2
04 06:56 W 15 16.09 Fair CLR 6.7 2.2 14.4 6.7 73% 4 75.36 1004.1
04 05:56 NW 15 16.09 Fair CLR 8.3 2.2 66% 6 75.36 1003.7
04 04:56 NW 9 16.09 Fair CLR 9.4 2.2 61% 8 75.34 1003.5
04 03:56 Calm 16.09 Fair CLR 12.2 2.2 51% 75.36 1003.6
04 02:56 S 13 16.09 Fair CLR 12.2 2.2 51% 75.36 1003.6
04 01:56 S 15 16.09 Fair CLR 13.3 2.2 47% 75.46 1004.8
04 00:56 S 13 16.09 Fair CLR 11.7 2.8 22.8 11.7 55% 75.54 1006.0
03 23:56 SE 11 16.09 Fair CLR 12.8 2.2 49% 75.59 1006.7
03 22:56 E 13 16.09 Fair CLR 13.9 2.8 47% 75.62 1007.1
03 21:56 E 15 16.09 Fair CLR 15 3.3 46% 75.64 1007.4
03 20:56 E 13 16.09 Fair CLR 16.7 2.8 40% 75.64 1007.8
03 19:56 E 13 16.09 Fair CLR 20 3.3 33% 75.64 1007.9
03 18:56 NE 19 16.09 Fair CLR 22.8 2.2 25 22.2 26% 75.72 1008.5
03 17:56 Calm 16.09 Fair CLR 23.3 0.6 22% 75.74 1008.7
03 16:56 N 7 16.09 Fair CLR 23.9 1.1 22% 25 75.79 1009.2
03 15:56 NE 11 16.09 Fair CLR 22.8 1.1 24% 75.84 1010.1
03 14:56 NE 20 G 37 16.09 Fair CLR 23.9 2.2 24% 25 75.9 1010.6
03 13:56 Vrbl 7 16.09 Fair CLR 22.8 1.1 24% 75.95 1011.3
03 12:56 NE 17 G 31 16.09 Fair CLR 22.2 1.7 22.8 8.3 26% 76 1012.1
03 11:56 NE 19 G 31 16.09 Fair CLR 22.2 2.2 27% 76.05 1012.8
03 10:56 N 20 16.09 Fair CLR 20.6 2.2 30% 76.07 1013.2
03 09:56 Calm 16.09 Fair CLR 17.8 2.2 35% 76.1 1013.8
03 08:56 N 20 16.09 Fair CLR 14.4 2.2 44% 76.07 1013.6
03 07:56 NW 13 16.09 Fair CLR 10 1.7 57% 8 76.02 1012.9
03 06:56 NW 17 16.09 Fair CLR 8.9 1.1 13.3 7.8 58% 7 75.97 1012.1
03 05:56 W 9 16.09 Fair CLR 10.6 0.6 50% 75.92 1011.2
03 04:56 SW 15 G 31 16.09 Fair CLR 12.2 0.6 45% 75.95 1011.5
03 03:56 SW 26 16.09 Fair CLR 12.2 1.1 47% 75.87 1010.7
03 02:56 SW 26 16.09 Fair CLR 12.8 1.1 45% 75.92 1011.4
03 01:56 SW 28 16.09 Fair CLR 12.8 1.7 47% 75.97 1012.3
03 00:56 SW 30 16.09 Fair CLR 13.3 1.7 21.7 12.8 46% 76 1012.4
02 23:56 S 28 16.09 Fair CLR 13.9 0.6 41% 76 1012.5
02 22:56 S 19 16.09 Fair CLR 13.9 0 39% 76.05 1013.3
02 21:56 S 19 16.09 Fair CLR 14.4 0.6 39% 76.07 1013.7
02 20:56 S 17 16.09 Fair CLR 15 -0.6 35% 76.07 1013.9
02 19:56 SW 15 16.09 Fair CLR 20 -1.1 24% 76.1 1014.2
02 18:56 W 20 16.09 Fair CLR 21.7 -2.2 21.7 16.7 20% 76.15 1015.0
02 17:56 W 17 16.09 Fair CLR 21.7 -1.7 21% 76.2 1015.4
02 16:56 W 11 16.09 Fair CLR 21.1 -1.7 22% 76.25 1016.6
02 15:56 SW 24 16.09 Fair CLR 20.6 -1.7 22% 76.33 1017.4
02 14:56 SW 17 G 30 16.09 Fair CLR 18.9 -3.3 22% 76.4 1018.7
02 13:56 SW 19 G 26 16.09 Fair CLR 17.2 -3.9 24% 76.48 1019.8
02 12:56 SW 19 16.09 Fair CLR 16.1 -3.9 16.7 1.7 25% 76.56 1020.9
02 11:56 W 17 G 28 16.09 Fair CLR 15.6 -2.8 28% 76.63 1021.9
02 10:56 W 9 16.09 Fair CLR 13.9 -2.8 32% 76.66 1022.4
02 09:56 SW 17 16.09 Fair CLR 12.2 -2.2 37% 76.68 1022.7
02 08:56 SW 15 16.09 Fair CLR 8.9 -2.8 44% 7 76.71 1022.8
02 07:56 W 7 16.09 Fair CLR 4.4 -2.2 63% 3 76.71 1023.0
02 06:56 W 9 16.09 Fair CLR 2.2 -3.3 5 1.1 67% -0 76.68 1022.8
02 05:56 W 7 16.09 Fair CLR 3.3 -3.3 62% 2 76.68 1022.5
02 04:56 Calm 16.09 Fair CLR 2.2 -2.8 70% 76.68 1022.7
02 03:56 W 11 16.09 Fair CLR 2.2 -3.3 67% -1 76.68 1022.6
02 02:56 W 7 16.09 Fair CLR 2.8 -2.8 67% 1 76.68 1022.6
02 01:56 NW 6 16.09 Fair CLR 3.3 -2.8 65% 76.71 1022.9
02 00:56 NE 7 16.09 Fair CLR 3.9 -2.8 14.4 2.8 62% 2 76.66 1022.5
01 23:56 Calm 16.09 Fair CLR 3.3 -1.7 70% 76.61 1022.0
01 22:56 NE 11 16.09 Fair CLR 6.1 -1.7 58% 4 76.61 1021.7
01 21:56 NE 17 16.09 A Few Clouds FEW080 7.8 -1.1 54% 5 76.56 1021.0
Date Time (cdt) Wind (kph) Vis. (km) Weather Sky Cond. Air Dwpt Max. Min. Relative Humidity Wind Chill (°C) Heat Index (°C) altimeter (cm) sea level (mb) 1 hr 3 hr 6 hr
6 hour
Temperature (ºC) Pressure Precipitation (cm)